MSC Clorinda — 3FDW7 — position and weather

sailwx.info

Track history (hours):
 
Tides and Currents Weather Stations Pressure Air Temp Water Temp Dewpoint Dewpoint Depression Visibility Wind Speed Wind Dir Waves Ship Positions

MSC Clorinda

Last reported at 2015-Aug-01 16:33 UTC. Time now 2015-Aug-02 16:24 UTC.
Position N 03°04' E 100°46'.

Length 366 m; draft 13.6 m.

Type: Ship (hazmat cat A). MMSI: 373233000.

Date/timePositionNaut miles runAvg speedWind from/ knotsBaromVisibWave heightAir tempDewpointWater temp
2015-Aug-01 16:33N 03°04' E 100°46'2222.3
2015-Aug-01 15:34N 02°49' E 101°03'4020.1
2015-Aug-01 13:33N 02°29' E 101°37'1918.5
2015-Aug-01 12:33N 02°17' E 101°52'12618.0
2015-Aug-01 05:34N 01°13' E 103°40'6 6.1
2015-Aug-01 04:30N 01°16' E 103°46'0 0.0
2015-Aug-01 03:30N 01°16' E 103°46'0 0.0
2015-Aug-01 02:33N 01°16' E 103°46'0 0.0
2015-Aug-01 00:33N 01°16' E 103°46'0 0.0
2015-Jul-31 23:33N 01°16' E 103°46'0 0.0
2015-Jul-31 22:33N 01°16' E 103°46'0 0.0
2015-Jul-31 21:33N 01°16' E 103°46'0 0.0
2015-Jul-31 20:33N 01°16' E 103°46'0 0.0
2015-Jul-31 19:33N 01°16' E 103°46'0 0.0
2015-Jul-31 18:33N 01°16' E 103°46'0 0.0
2015-Jul-31 16:18N 01°16' E 103°46'0 0.0
2015-Jul-31 15:15N 01°16' E 103°46'0 0.0
2015-Jul-31 14:33N 01°16' E 103°46'0 0.0
2015-Jul-31 13:33N 01°16' E 103°46'0 0.0
2015-Jul-31 12:33N 01°16' E 103°46'0 0.0
2015-Jul-31 11:33N 01°16' E 103°46'0 0.0
2015-Jul-31 10:33N 01°16' E 103°46'0 0.0
2015-Jul-31 09:33N 01°16' E 103°46'0 0.2
2015-Jul-31 08:33N 01°16' E 103°45'6 5.7
2015-Jul-31 07:33N 01°12' E 103°50'6 5.8
2015-Jul-31 06:33N 01°14' E 103°55'4 4.3
2015-Jul-31 05:33N 01°15' E 103°59'8 7.8
2015-Jul-31 04:33N 01°17' E 104°07'1311.5
2015-Jul-31 03:25N 01°19' E 104°20'  
2015-Jul-28 09:34N 22°13' E 114°26'2311.7
2015-Jul-28 07:33N 22°34' E 114°16'0 0.4
2015-Jul-28 06:27N 22°34' E 114°16'0 0.0
2015-Jul-28 05:25N 22°34' E 114°16'0 0.0
2015-Jul-28 03:09N 22°34' E 114°16'0 0.0
2015-Jul-28 02:05N 22°34' E 114°16'0 0.0
2015-Jul-28 00:30N 22°34' E 114°16'0 0.0
2015-Jul-27 20:16N 22°34' E 114°16'16 5.3
2015-Jul-27 17:10N 22°21' E 114°27'610.7
2015-Jul-27 16:33N 22°15' E 114°26'1212.6
2015-Jul-27 15:34N 22°03' E 114°23'30 7.6
2015-Jul-27 11:33N 22°07' E 113°51'1010.5
2015-Jul-27 10:33N 22°18' E 113°48'1110.3
2015-Jul-27 09:32N 22°27' E 113°53'0 0.4
2015-Jul-27 08:32N 22°28' E 113°53'0 0.0
2015-Jul-27 07:32N 22°28' E 113°53'0 0.0
2015-Jul-27 06:32N 22°28' E 113°53'0 0.0
2015-Jul-27 05:32N 22°28' E 113°53'0 0.0
2015-Jul-27 04:32N 22°28' E 113°53'0 0.0
2015-Jul-27 03:29N 22°28' E 113°53'0 0.0
2015-Jul-27 02:33N 22°28' E 113°53'0 0.0
2015-Jul-27 01:33N 22°28' E 113°53'0 0.0
2015-Jul-27 00:33N 22°28' E 113°53'0 0.1
2015-Jul-26 23:33N 22°27' E 113°53'9 9.0
2015-Jul-26 22:33N 22°19' E 113°48'1110.8
2015-Jul-26 21:33N 22°09' E 113°51'11 7.7
2015-Jul-26 20:11N 21°58' E 113°54'2513.0
2015-Jul-26 18:14N 21°59' E 114°21'24014.1
2015-Jul-26 01:17N 23°44' E 118°14'1115.4
2015-Jul-26 00:33N 23°52' E 118°23'1615.8
2015-Jul-25 23:33N 24°01' E 118°37'44614.4
2015-Jul-24 16:33N 30°24' E 122°54'2718.6
2015-Jul-24 15:07N 30°31' E 122°24'812.8
2015-Jul-24 14:31N 30°33' E 122°16'1212.1
2015-Jul-24 13:33N 30°37' E 122°03'1 0.7
2015-Jul-24 12:33N 30°38' E 122°03'0 0.0
2015-Jul-24 11:33N 30°38' E 122°03'0 0.0
2015-Jul-24 10:33N 30°38' E 122°03'0 0.0
2015-Jul-24 09:30N 30°38' E 122°03'0 0.0
2015-Jul-24 08:33N 30°38' E 122°03'0 0.0
2015-Jul-24 07:33N 30°38' E 122°03'0 0.0
2015-Jul-24 06:33N 30°38' E 122°03'0 0.0
2015-Jul-24 05:30N 30°38' E 122°03'0 0.0
2015-Jul-24 04:33N 30°38' E 122°03'0 0.0
2015-Jul-24 03:33N 30°38' E 122°03'0 0.0
2015-Jul-24 02:33N 30°38' E 122°03'0 0.0
2015-Jul-24 01:33N 30°38' E 122°03'0 0.0
2015-Jul-24 00:33N 30°38' E 122°03'0 0.0
2015-Jul-23 23:33N 30°38' E 122°03'2 1.7
2015-Jul-23 22:33N 30°37' E 122°04'3 3.0
2015-Jul-23 21:33N 30°35' E 122°07'8 8.3
2015-Jul-23 20:33N 30°34' E 122°17'8 7.8
2015-Jul-23 19:32N 30°32' E 122°26'1310.6
2015-Jul-23 18:19N 30°30' E 122°40'5 6.1
2015-Jul-23 17:33N 30°27' E 122°45'0 0.0
2015-Jul-23 07:04N 30°27' E 122°45'0 0.8
2015-Jul-23 06:32N 30°27' E 122°45'9 9.0
2015-Jul-23 05:32N 30°19' E 122°48'1616.3
2015-Jul-23 04:33N 30°03' E 122°47'1717.1
2015-Jul-23 03:33N 29°47' E 122°40'1414.1
2015-Jul-23 02:31N 29°42' E 122°24'1513.1
2015-Jul-23 01:22N 29°52' E 122°11'8 2.5
2015-Jul-22 22:16N 29°53' E 122°03'  
Track history (hours):
 
Tides and Currents Weather Stations Pressure Air Temp Water Temp Dewpoint Dewpoint Depression Visibility Wind Speed Wind Dir Waves Ship Positions

MSC Clorinda

Last reported at 2015-Aug-01 16:33 UTC. Time now 2015-Aug-02 16:24 UTC.
Position N 03°04' E 100°46'.

Length 366 m; draft 13.6 m.

Type: Ship (hazmat cat A). MMSI: 373233000.

Date/timePositionNaut miles runAvg speedWind from/ knotsBaromVisibWave heightAir tempDewpointWater temp
2015-Aug-01 16:33N 03°04' E 100°46'2222.3
2015-Aug-01 15:34N 02°49' E 101°03'4020.1
2015-Aug-01 13:33N 02°29' E 101°37'1918.5
2015-Aug-01 12:33N 02°17' E 101°52'12618.0
2015-Aug-01 05:34N 01°13' E 103°40'6 6.1
2015-Aug-01 04:30N 01°16' E 103°46'0 0.0
2015-Aug-01 03:30N 01°16' E 103°46'0 0.0
2015-Aug-01 02:33N 01°16' E 103°46'0 0.0
2015-Aug-01 00:33N 01°16' E 103°46'0 0.0
2015-Jul-31 23:33N 01°16' E 103°46'0 0.0
2015-Jul-31 22:33N 01°16' E 103°46'0 0.0
2015-Jul-31 21:33N 01°16' E 103°46'0 0.0
2015-Jul-31 20:33N 01°16' E 103°46'0 0.0
2015-Jul-31 19:33N 01°16' E 103°46'0 0.0
2015-Jul-31 18:33N 01°16' E 103°46'0 0.0
2015-Jul-31 16:18N 01°16' E 103°46'0 0.0
2015-Jul-31 15:15N 01°16' E 103°46'0 0.0
2015-Jul-31 14:33N 01°16' E 103°46'0 0.0
2015-Jul-31 13:33N 01°16' E 103°46'0 0.0
2015-Jul-31 12:33N 01°16' E 103°46'0 0.0
2015-Jul-31 11:33N 01°16' E 103°46'0 0.0
2015-Jul-31 10:33N 01°16' E 103°46'0 0.0
2015-Jul-31 09:33N 01°16' E 103°46'0 0.2
2015-Jul-31 08:33N 01°16' E 103°45'6 5.7
2015-Jul-31 07:33N 01°12' E 103°50'6 5.8
2015-Jul-31 06:33N 01°14' E 103°55'4 4.3
2015-Jul-31 05:33N 01°15' E 103°59'8 7.8
2015-Jul-31 04:33N 01°17' E 104°07'1311.5
2015-Jul-31 03:25N 01°19' E 104°20'  
2015-Jul-28 09:34N 22°13' E 114°26'2311.7
2015-Jul-28 07:33N 22°34' E 114°16'0 0.4
2015-Jul-28 06:27N 22°34' E 114°16'0 0.0
2015-Jul-28 05:25N 22°34' E 114°16'0 0.0
2015-Jul-28 03:09N 22°34' E 114°16'0 0.0
2015-Jul-28 02:05N 22°34' E 114°16'0 0.0
2015-Jul-28 00:30N 22°34' E 114°16'0 0.0
2015-Jul-27 20:16N 22°34' E 114°16'16 5.3
2015-Jul-27 17:10N 22°21' E 114°27'610.7
2015-Jul-27 16:33N 22°15' E 114°26'1212.6
2015-Jul-27 15:34N 22°03' E 114°23'30 7.6
2015-Jul-27 11:33N 22°07' E 113°51'1010.5
2015-Jul-27 10:33N 22°18' E 113°48'1110.3
2015-Jul-27 09:32N 22°27' E 113°53'0 0.4
2015-Jul-27 08:32N 22°28' E 113°53'0 0.0
2015-Jul-27 07:32N 22°28' E 113°53'0 0.0
2015-Jul-27 06:32N 22°28' E 113°53'0 0.0
2015-Jul-27 05:32N 22°28' E 113°53'0 0.0
2015-Jul-27 04:32N 22°28' E 113°53'0 0.0
2015-Jul-27 03:29N 22°28' E 113°53'0 0.0
2015-Jul-27 02:33N 22°28' E 113°53'0 0.0
2015-Jul-27 01:33N 22°28' E 113°53'0 0.0
2015-Jul-27 00:33N 22°28' E 113°53'0 0.1
2015-Jul-26 23:33N 22°27' E 113°53'9 9.0
2015-Jul-26 22:33N 22°19' E 113°48'1110.8
2015-Jul-26 21:33N 22°09' E 113°51'11 7.7
2015-Jul-26 20:11N 21°58' E 113°54'2513.0
2015-Jul-26 18:14N 21°59' E 114°21'24014.1
2015-Jul-26 01:17N 23°44' E 118°14'1115.4
2015-Jul-26 00:33N 23°52' E 118°23'1615.8
2015-Jul-25 23:33N 24°01' E 118°37'44614.4
2015-Jul-24 16:33N 30°24' E 122°54'2718.6
2015-Jul-24 15:07N 30°31' E 122°24'812.8
2015-Jul-24 14:31N 30°33' E 122°16'1212.1
2015-Jul-24 13:33N 30°37' E 122°03'1 0.7
2015-Jul-24 12:33N 30°38' E 122°03'0 0.0
2015-Jul-24 11:33N 30°38' E 122°03'0 0.0
2015-Jul-24 10:33N 30°38' E 122°03'0 0.0
2015-Jul-24 09:30N 30°38' E 122°03'0 0.0
2015-Jul-24 08:33N 30°38' E 122°03'0 0.0
2015-Jul-24 07:33N 30°38' E 122°03'0 0.0
2015-Jul-24 06:33N 30°38' E 122°03'0 0.0
2015-Jul-24 05:30N 30°38' E 122°03'0 0.0
2015-Jul-24 04:33N 30°38' E 122°03'0 0.0
2015-Jul-24 03:33N 30°38' E 122°03'0 0.0
2015-Jul-24 02:33N 30°38' E 122°03'0 0.0
2015-Jul-24 01:33N 30°38' E 122°03'0 0.0
2015-Jul-24 00:33N 30°38' E 122°03'0 0.0
2015-Jul-23 23:33N 30°38' E 122°03'2 1.7
2015-Jul-23 22:33N 30°37' E 122°04'3 3.0
2015-Jul-23 21:33N 30°35' E 122°07'8 8.3
2015-Jul-23 20:33N 30°34' E 122°17'8 7.8
2015-Jul-23 19:32N 30°32' E 122°26'1310.6
2015-Jul-23 18:19N 30°30' E 122°40'5 6.1
2015-Jul-23 17:33N 30°27' E 122°45'0 0.0
2015-Jul-23 07:04N 30°27' E 122°45'0 0.8
2015-Jul-23 06:32N 30°27' E 122°45'9 9.0
2015-Jul-23 05:32N 30°19' E 122°48'1616.3
2015-Jul-23 04:33N 30°03' E 122°47'1717.1
2015-Jul-23 03:33N 29°47' E 122°40'1414.1
2015-Jul-23 02:31N 29°42' E 122°24'1513.1
2015-Jul-23 01:22N 29°52' E 122°11'8 2.5
2015-Jul-22 22:16N 29°53' E 122°03'  

Dump ship's entire track history